sensor_id;sensor_type;location;lat;lon;timestamp;P1;durP1;ratioP1;P2;durP2;ratioP2
577;SDS011;275;48.492;9.214;2023-07-20T00:02:23;4.53;;;2.80;;
577;SDS011;275;48.492;9.214;2023-07-20T00:04:50;4.80;;;2.50;;
577;SDS011;275;48.492;9.214;2023-07-20T00:07:16;4.50;;;2.73;;
577;SDS011;275;48.492;9.214;2023-07-20T00:09:43;4.47;;;2.50;;
577;SDS011;275;48.492;9.214;2023-07-20T00:12:10;5.13;;;3.07;;
577;SDS011;275;48.492;9.214;2023-07-20T00:14:37;5.80;;;3.17;;
577;SDS011;275;48.492;9.214;2023-07-20T00:17:05;4.60;;;3.00;;
577;SDS011;275;48.492;9.214;2023-07-20T00:19:32;4.23;;;3.10;;
577;SDS011;275;48.492;9.214;2023-07-20T00:22:00;6.93;;;3.40;;
577;SDS011;275;48.492;9.214;2023-07-20T00:24:27;7.00;;;3.40;;
577;SDS011;275;48.492;9.214;2023-07-20T00:26:53;6.20;;;2.77;;
577;SDS011;275;48.492;9.214;2023-07-20T00:29:20;6.43;;;3.40;;
577;SDS011;275;48.492;9.214;2023-07-20T00:31:47;8.67;;;3.60;;
577;SDS011;275;48.492;9.214;2023-07-20T00:34:15;5.10;;;3.60;;
577;SDS011;275;48.492;9.214;2023-07-20T00:36:42;6.70;;;3.10;;
577;SDS011;275;48.492;9.214;2023-07-20T00:39:09;4.67;;;2.70;;
577;SDS011;275;48.492;9.214;2023-07-20T00:41:35;5.77;;;3.07;;
577;SDS011;275;48.492;9.214;2023-07-20T00:44:03;4.20;;;3.00;;
577;SDS011;275;48.492;9.214;2023-07-20T00:46:30;7.73;;;3.00;;
577;SDS011;275;48.492;9.214;2023-07-20T00:48:58;5.97;;;3.20;;
577;SDS011;275;48.492;9.214;2023-07-20T00:51:26;4.60;;;3.37;;
577;SDS011;275;48.492;9.214;2023-07-20T00:53:53;5.30;;;3.17;;
577;SDS011;275;48.492;9.214;2023-07-20T00:56:20;5.60;;;3.60;;
577;SDS011;275;48.492;9.214;2023-07-20T00:58:48;6.10;;;3.70;;
577;SDS011;275;48.492;9.214;2023-07-20T01:01:15;6.27;;;3.67;;
577;SDS011;275;48.492;9.214;2023-07-20T01:03:41;5.20;;;2.90;;
577;SDS011;275;48.492;9.214;2023-07-20T01:06:14;4.53;;;3.63;;
577;SDS011;275;48.492;9.214;2023-07-20T01:08:54;4.50;;;3.10;;
577;SDS011;275;48.492;9.214;2023-07-20T01:11:28;5.07;;;3.03;;
577;SDS011;275;48.492;9.214;2023-07-20T01:14:02;4.57;;;3.03;;
577;SDS011;275;48.492;9.214;2023-07-20T01:16:31;4.20;;;2.93;;
577;SDS011;275;48.492;9.214;2023-07-20T01:18:58;4.87;;;3.33;;
577;SDS011;275;48.492;9.214;2023-07-20T01:21:26;4.40;;;3.00;;
577;SDS011;275;48.492;9.214;2023-07-20T01:24:04;7.13;;;3.37;;
577;SDS011;275;48.492;9.214;2023-07-20T01:26:47;4.73;;;3.47;;
577;SDS011;275;48.492;9.214;2023-07-20T01:29:51;6.53;;;3.80;;
577;SDS011;275;48.492;9.214;2023-07-20T01:32:30;6.67;;;3.37;;
577;SDS011;275;48.492;9.214;2023-07-20T01:34:58;5.07;;;4.00;;
577;SDS011;275;48.492;9.214;2023-07-20T01:37:27;6.03;;;3.87;;
577;SDS011;275;48.492;9.214;2023-07-20T01:39:55;4.47;;;2.93;;
577;SDS011;275;48.492;9.214;2023-07-20T01:42:22;5.60;;;3.53;;
577;SDS011;275;48.492;9.214;2023-07-20T01:44:50;4.20;;;3.43;;
577;SDS011;275;48.492;9.214;2023-07-20T01:47:18;6.50;;;3.43;;
577;SDS011;275;48.492;9.214;2023-07-20T01:49:46;4.50;;;3.30;;
577;SDS011;275;48.492;9.214;2023-07-20T01:52:13;4.77;;;3.60;;
577;SDS011;275;48.492;9.214;2023-07-20T01:54:40;4.30;;;3.50;;
577;SDS011;275;48.492;9.214;2023-07-20T01:57:07;5.00;;;3.73;;
577;SDS011;275;48.492;9.214;2023-07-20T01:59:33;7.40;;;4.00;;
577;SDS011;275;48.492;9.214;2023-07-20T02:02:00;5.30;;;3.77;;
577;SDS011;275;48.492;9.214;2023-07-20T02:04:27;6.00;;;3.30;;
577;SDS011;275;48.492;9.214;2023-07-20T02:06:55;5.87;;;3.50;;
577;SDS011;275;48.492;9.214;2023-07-20T02:09:22;4.80;;;3.53;;
577;SDS011;275;48.492;9.214;2023-07-20T02:11:49;6.60;;;3.70;;
577;SDS011;275;48.492;9.214;2023-07-20T02:14:16;6.67;;;3.47;;
577;SDS011;275;48.492;9.214;2023-07-20T02:16:43;4.67;;;3.73;;
577;SDS011;275;48.492;9.214;2023-07-20T02:19:09;5.37;;;3.80;;
577;SDS011;275;48.492;9.214;2023-07-20T02:21:36;6.43;;;3.77;;
577;SDS011;275;48.492;9.214;2023-07-20T02:24:05;5.40;;;3.90;;
577;SDS011;275;48.492;9.214;2023-07-20T02:26:32;5.47;;;4.00;;
577;SDS011;275;48.492;9.214;2023-07-20T02:28:59;9.70;;;4.23;;
577;SDS011;275;48.492;9.214;2023-07-20T02:31:26;4.93;;;3.97;;
577;SDS011;275;48.492;9.214;2023-07-20T02:33:53;4.20;;;3.40;;
577;SDS011;275;48.492;9.214;2023-07-20T02:36:20;7.50;;;4.30;;
577;SDS011;275;48.492;9.214;2023-07-20T02:38:47;5.60;;;3.83;;
577;SDS011;275;48.492;9.214;2023-07-20T02:41:15;4.90;;;3.30;;
577;SDS011;275;48.492;9.214;2023-07-20T02:43:42;6.03;;;3.60;;
577;SDS011;275;48.492;9.214;2023-07-20T02:46:08;7.83;;;4.13;;
577;SDS011;275;48.492;9.214;2023-07-20T02:48:35;4.00;;;3.60;;
577;SDS011;275;48.492;9.214;2023-07-20T02:51:02;6.17;;;3.77;;
577;SDS011;275;48.492;9.214;2023-07-20T02:53:29;4.83;;;3.70;;
577;SDS011;275;48.492;9.214;2023-07-20T02:55:56;4.60;;;3.03;;
577;SDS011;275;48.492;9.214;2023-07-20T02:58:24;9.70;;;4.30;;
577;SDS011;275;48.492;9.214;2023-07-20T03:00:51;6.43;;;3.40;;
577;SDS011;275;48.492;9.214;2023-07-20T03:03:18;4.03;;;3.17;;
577;SDS011;275;48.492;9.214;2023-07-20T03:05:45;5.30;;;3.87;;
577;SDS011;275;48.492;9.214;2023-07-20T03:08:11;3.83;;;3.23;;
577;SDS011;275;48.492;9.214;2023-07-20T03:10:38;4.30;;;3.33;;
577;SDS011;275;48.492;9.214;2023-07-20T03:13:06;5.80;;;3.67;;
577;SDS011;275;48.492;9.214;2023-07-20T03:15:35;5.93;;;3.30;;
577;SDS011;275;48.492;9.214;2023-07-20T03:18:02;4.13;;;3.40;;
577;SDS011;275;48.492;9.214;2023-07-20T03:20:29;5.70;;;3.37;;
577;SDS011;275;48.492;9.214;2023-07-20T03:22:57;7.63;;;3.60;;
577;SDS011;275;48.492;9.214;2023-07-20T03:25:24;8.10;;;3.53;;
577;SDS011;275;48.492;9.214;2023-07-20T03:27:51;4.90;;;3.70;;
577;SDS011;275;48.492;9.214;2023-07-20T03:30:18;6.50;;;3.60;;
577;SDS011;275;48.492;9.214;2023-07-20T03:32:46;5.73;;;3.00;;
577;SDS011;275;48.492;9.214;2023-07-20T03:35:13;7.27;;;3.80;;
577;SDS011;275;48.492;9.214;2023-07-20T03:37:40;4.77;;;3.80;;
577;SDS011;275;48.492;9.214;2023-07-20T03:40:08;3.97;;;3.13;;
577;SDS011;275;48.492;9.214;2023-07-20T03:42:35;4.50;;;3.57;;
577;SDS011;275;48.492;9.214;2023-07-20T03:45:04;5.23;;;3.80;;
577;SDS011;275;48.492;9.214;2023-07-20T03:47:31;4.80;;;3.30;;
577;SDS011;275;48.492;9.214;2023-07-20T03:49:59;6.17;;;3.50;;
577;SDS011;275;48.492;9.214;2023-07-20T03:52:26;5.07;;;3.77;;
577;SDS011;275;48.492;9.214;2023-07-20T03:54:53;5.40;;;3.70;;
577;SDS011;275;48.492;9.214;2023-07-20T03:57:20;5.03;;;3.57;;
577;SDS011;275;48.492;9.214;2023-07-20T03:59:47;5.13;;;3.27;;
577;SDS011;275;48.492;9.214;2023-07-20T04:02:14;5.60;;;3.20;;
577;SDS011;275;48.492;9.214;2023-07-20T04:04:41;6.30;;;3.60;;
577;SDS011;275;48.492;9.214;2023-07-20T04:07:09;4.67;;;3.40;;
577;SDS011;275;48.492;9.214;2023-07-20T04:09:36;5.13;;;3.80;;
577;SDS011;275;48.492;9.214;2023-07-20T04:12:03;5.33;;;3.53;;
577;SDS011;275;48.492;9.214;2023-07-20T04:14:30;6.53;;;3.67;;
577;SDS011;275;48.492;9.214;2023-07-20T04:16:57;8.40;;;4.00;;
577;SDS011;275;48.492;9.214;2023-07-20T04:19:25;6.07;;;3.77;;
577;SDS011;275;48.492;9.214;2023-07-20T04:21:52;5.17;;;3.00;;
577;SDS011;275;48.492;9.214;2023-07-20T04:24:20;4.70;;;3.63;;
577;SDS011;275;48.492;9.214;2023-07-20T04:26:47;5.63;;;4.17;;
577;SDS011;275;48.492;9.214;2023-07-20T04:29:14;4.63;;;3.10;;
577;SDS011;275;48.492;9.214;2023-07-20T04:31:41;4.80;;;3.53;;
577;SDS011;275;48.492;9.214;2023-07-20T04:34:07;4.30;;;2.70;;
577;SDS011;275;48.492;9.214;2023-07-20T04:36:34;4.63;;;3.30;;
577;SDS011;275;48.492;9.214;2023-07-20T04:39:01;4.30;;;3.40;;
577;SDS011;275;48.492;9.214;2023-07-20T04:41:31;6.33;;;3.50;;
577;SDS011;275;48.492;9.214;2023-07-20T04:43:57;5.73;;;3.20;;
577;SDS011;275;48.492;9.214;2023-07-20T04:46:24;4.87;;;3.60;;
577;SDS011;275;48.492;9.214;2023-07-20T04:48:51;5.17;;;3.60;;
577;SDS011;275;48.492;9.214;2023-07-20T04:51:18;5.67;;;3.30;;
577;SDS011;275;48.492;9.214;2023-07-20T04:53:46;4.37;;;2.97;;
577;SDS011;275;48.492;9.214;2023-07-20T04:56:12;4.77;;;3.57;;
577;SDS011;275;48.492;9.214;2023-07-20T04:58:41;5.40;;;3.20;;
577;SDS011;275;48.492;9.214;2023-07-20T05:01:07;5.63;;;3.60;;
577;SDS011;275;48.492;9.214;2023-07-20T05:03:34;5.70;;;3.53;;
577;SDS011;275;48.492;9.214;2023-07-20T05:06:01;6.10;;;3.67;;
577;SDS011;275;48.492;9.214;2023-07-20T05:08:28;5.23;;;3.40;;
577;SDS011;275;48.492;9.214;2023-07-20T05:10:55;5.70;;;2.90;;
577;SDS011;275;48.492;9.214;2023-07-20T05:13:22;5.13;;;3.40;;
577;SDS011;275;48.492;9.214;2023-07-20T05:15:52;5.27;;;3.50;;
577;SDS011;275;48.492;9.214;2023-07-20T05:18:20;6.30;;;3.37;;
577;SDS011;275;48.492;9.214;2023-07-20T05:20:47;5.23;;;3.30;;
577;SDS011;275;48.492;9.214;2023-07-20T05:23:14;6.80;;;4.63;;
577;SDS011;275;48.492;9.214;2023-07-20T05:25:41;4.10;;;3.13;;
577;SDS011;275;48.492;9.214;2023-07-20T05:28:08;5.57;;;3.23;;
577;SDS011;275;48.492;9.214;2023-07-20T05:30:35;6.27;;;4.13;;
577;SDS011;275;48.492;9.214;2023-07-20T05:33:03;6.87;;;3.53;;
577;SDS011;275;48.492;9.214;2023-07-20T05:35:30;6.50;;;3.40;;
577;SDS011;275;48.492;9.214;2023-07-20T05:37:56;5.63;;;3.30;;
577;SDS011;275;48.492;9.214;2023-07-20T05:42:51;5.90;;;4.10;;
577;SDS011;275;48.492;9.214;2023-07-20T05:45:20;4.60;;;3.07;;
577;SDS011;275;48.492;9.214;2023-07-20T05:47:47;6.57;;;4.20;;
577;SDS011;275;48.492;9.214;2023-07-20T05:50:15;4.57;;;2.90;;
577;SDS011;275;48.492;9.214;2023-07-20T05:52:42;6.00;;;3.17;;
577;SDS011;275;48.492;9.214;2023-07-20T05:55:09;4.20;;;3.20;;
577;SDS011;275;48.492;9.214;2023-07-20T05:57:36;6.43;;;3.37;;
577;SDS011;275;48.492;9.214;2023-07-20T06:00:07;6.30;;;2.90;;
577;SDS011;275;48.492;9.214;2023-07-20T06:02:35;5.37;;;3.10;;
577;SDS011;275;48.492;9.214;2023-07-20T06:05:01;6.67;;;3.60;;
577;SDS011;275;48.492;9.214;2023-07-20T06:07:30;9.80;;;3.53;;
577;SDS011;275;48.492;9.214;2023-07-20T06:09:56;4.50;;;2.80;;
577;SDS011;275;48.492;9.214;2023-07-20T06:12:24;5.30;;;3.10;;
577;SDS011;275;48.492;9.214;2023-07-20T06:14:51;5.37;;;3.30;;
577;SDS011;275;48.492;9.214;2023-07-20T06:17:18;4.87;;;3.03;;
577;SDS011;275;48.492;9.214;2023-07-20T06:19:45;5.80;;;3.50;;
577;SDS011;275;48.492;9.214;2023-07-20T06:22:11;7.03;;;3.80;;
577;SDS011;275;48.492;9.214;2023-07-20T06:24:40;4.90;;;3.33;;
577;SDS011;275;48.492;9.214;2023-07-20T06:27:06;4.27;;;3.30;;
577;SDS011;275;48.492;9.214;2023-07-20T06:29:33;7.90;;;3.80;;
577;SDS011;275;48.492;9.214;2023-07-20T06:32:00;5.97;;;2.87;;
577;SDS011;275;48.492;9.214;2023-07-20T06:34:27;6.67;;;3.50;;
577;SDS011;275;48.492;9.214;2023-07-20T06:36:54;6.43;;;3.23;;
577;SDS011;275;48.492;9.214;2023-07-20T06:39:21;10.73;;;3.60;;
577;SDS011;275;48.492;9.214;2023-07-20T06:41:50;5.67;;;4.10;;
577;SDS011;275;48.492;9.214;2023-07-20T06:44:16;4.93;;;3.40;;
577;SDS011;275;48.492;9.214;2023-07-20T06:46:43;5.40;;;3.57;;
577;SDS011;275;48.492;9.214;2023-07-20T06:49:15;4.80;;;3.73;;
577;SDS011;275;48.492;9.214;2023-07-20T06:51:50;5.03;;;3.40;;
577;SDS011;275;48.492;9.214;2023-07-20T06:54:17;5.83;;;3.87;;
577;SDS011;275;48.492;9.214;2023-07-20T06:56:44;4.73;;;3.40;;
577;SDS011;275;48.492;9.214;2023-07-20T06:59:12;6.90;;;3.57;;
577;SDS011;275;48.492;9.214;2023-07-20T07:01:42;5.00;;;2.93;;
577;SDS011;275;48.492;9.214;2023-07-20T07:04:09;4.90;;;3.07;;
577;SDS011;275;48.492;9.214;2023-07-20T07:06:36;6.60;;;3.80;;
577;SDS011;275;48.492;9.214;2023-07-20T07:09:03;6.43;;;3.23;;
577;SDS011;275;48.492;9.214;2023-07-20T07:11:30;5.23;;;2.93;;
577;SDS011;275;48.492;9.214;2023-07-20T07:13:57;5.33;;;2.97;;
577;SDS011;275;48.492;9.214;2023-07-20T07:16:25;5.73;;;3.27;;
577;SDS011;275;48.492;9.214;2023-07-20T07:18:52;7.70;;;2.73;;
577;SDS011;275;48.492;9.214;2023-07-20T07:21:19;6.37;;;3.20;;
577;SDS011;275;48.492;9.214;2023-07-20T07:23:46;7.23;;;3.33;;
577;SDS011;275;48.492;9.214;2023-07-20T07:26:13;4.80;;;3.10;;
577;SDS011;275;48.492;9.214;2023-07-20T07:28:40;7.27;;;3.13;;
577;SDS011;275;48.492;9.214;2023-07-20T07:31:07;5.90;;;3.60;;
577;SDS011;275;48.492;9.214;2023-07-20T07:33:35;4.17;;;3.00;;
577;SDS011;275;48.492;9.214;2023-07-20T07:36:02;4.93;;;3.00;;
577;SDS011;275;48.492;9.214;2023-07-20T07:38:29;4.93;;;3.83;;
577;SDS011;275;48.492;9.214;2023-07-20T07:40:55;7.40;;;3.60;;
577;SDS011;275;48.492;9.214;2023-07-20T07:43:22;5.70;;;3.80;;
577;SDS011;275;48.492;9.214;2023-07-20T07:45:49;8.50;;;3.00;;
577;SDS011;275;48.492;9.214;2023-07-20T07:48:16;4.90;;;2.67;;
577;SDS011;275;48.492;9.214;2023-07-20T07:50:44;6.60;;;2.70;;
577;SDS011;275;48.492;9.214;2023-07-20T07:53:11;5.20;;;3.70;;
577;SDS011;275;48.492;9.214;2023-07-20T07:55:38;6.53;;;3.33;;
577;SDS011;275;48.492;9.214;2023-07-20T07:58:06;4.43;;;3.13;;
577;SDS011;275;48.492;9.214;2023-07-20T08:00:33;6.93;;;3.77;;
577;SDS011;275;48.492;9.214;2023-07-20T08:03:00;7.87;;;2.80;;
577;SDS011;275;48.492;9.214;2023-07-20T08:05:26;5.40;;;3.00;;
577;SDS011;275;48.492;9.214;2023-07-20T08:07:55;8.67;;;4.00;;
577;SDS011;275;48.492;9.214;2023-07-20T08:10:21;5.40;;;2.80;;
577;SDS011;275;48.492;9.214;2023-07-20T08:12:48;4.80;;;2.80;;
577;SDS011;275;48.492;9.214;2023-07-20T08:15:16;4.47;;;2.60;;
577;SDS011;275;48.492;9.214;2023-07-20T08:17:43;4.87;;;2.90;;
577;SDS011;275;48.492;9.214;2023-07-20T08:20:10;4.33;;;2.50;;
577;SDS011;275;48.492;9.214;2023-07-20T08:22:38;4.23;;;2.50;;
577;SDS011;275;48.492;9.214;2023-07-20T08:25:07;4.83;;;3.10;;
577;SDS011;275;48.492;9.214;2023-07-20T08:27:35;4.33;;;2.70;;
577;SDS011;275;48.492;9.214;2023-07-20T08:30:02;5.33;;;3.27;;
577;SDS011;275;48.492;9.214;2023-07-20T08:32:30;4.10;;;2.50;;
577;SDS011;275;48.492;9.214;2023-07-20T08:34:59;4.53;;;2.47;;
577;SDS011;275;48.492;9.214;2023-07-20T08:37:25;4.83;;;2.70;;
577;SDS011;275;48.492;9.214;2023-07-20T08:39:52;6.83;;;2.93;;
577;SDS011;275;48.492;9.214;2023-07-20T08:42:20;8.40;;;3.30;;
577;SDS011;275;48.492;9.214;2023-07-20T08:44:49;4.50;;;2.80;;
577;SDS011;275;48.492;9.214;2023-07-20T08:47:18;4.43;;;2.60;;
577;SDS011;275;48.492;9.214;2023-07-20T08:49:47;5.13;;;2.80;;
577;SDS011;275;48.492;9.214;2023-07-20T08:52:15;6.20;;;2.50;;
577;SDS011;275;48.492;9.214;2023-07-20T08:54:42;5.60;;;3.20;;
577;SDS011;275;48.492;9.214;2023-07-20T08:57:09;6.17;;;3.27;;
577;SDS011;275;48.492;9.214;2023-07-20T08:59:40;5.83;;;3.37;;
577;SDS011;275;48.492;9.214;2023-07-20T09:02:09;4.60;;;2.80;;
577;SDS011;275;48.492;9.214;2023-07-20T09:04:41;5.53;;;3.70;;
577;SDS011;275;48.492;9.214;2023-07-20T09:07:10;6.37;;;2.87;;
577;SDS011;275;48.492;9.214;2023-07-20T09:09:39;6.87;;;2.90;;
577;SDS011;275;48.492;9.214;2023-07-20T09:12:12;4.70;;;3.07;;
577;SDS011;275;48.492;9.214;2023-07-20T09:14:40;4.50;;;2.37;;
577;SDS011;275;48.492;9.214;2023-07-20T09:17:12;5.80;;;2.60;;
577;SDS011;275;48.492;9.214;2023-07-20T09:19:45;5.63;;;2.70;;
577;SDS011;275;48.492;9.214;2023-07-20T09:22:13;4.30;;;3.10;;
577;SDS011;275;48.492;9.214;2023-07-20T09:24:40;4.43;;;2.60;;
577;SDS011;275;48.492;9.214;2023-07-20T09:27:07;4.10;;;3.07;;
577;SDS011;275;48.492;9.214;2023-07-20T09:29:36;4.50;;;2.83;;
577;SDS011;275;48.492;9.214;2023-07-20T09:32:17;4.43;;;2.60;;
577;SDS011;275;48.492;9.214;2023-07-20T09:34:46;5.77;;;3.17;;
577;SDS011;275;48.492;9.214;2023-07-20T09:37:13;5.13;;;2.70;;
577;SDS011;275;48.492;9.214;2023-07-20T09:39:45;9.37;;;3.00;;
577;SDS011;275;48.492;9.214;2023-07-20T09:42:13;4.80;;;2.50;;
577;SDS011;275;48.492;9.214;2023-07-20T09:44:40;7.00;;;2.80;;
577;SDS011;275;48.492;9.214;2023-07-20T09:47:10;4.63;;;2.50;;
577;SDS011;275;48.492;9.214;2023-07-20T09:49:38;4.73;;;2.80;;
577;SDS011;275;48.492;9.214;2023-07-20T09:52:06;5.03;;;2.60;;
577;SDS011;275;48.492;9.214;2023-07-20T09:54:35;9.10;;;2.63;;
577;SDS011;275;48.492;9.214;2023-07-20T09:57:04;4.03;;;2.50;;
577;SDS011;275;48.492;9.214;2023-07-20T09:59:34;4.13;;;2.03;;
577;SDS011;275;48.492;9.214;2023-07-20T10:02:01;3.67;;;1.97;;
577;SDS011;275;48.492;9.214;2023-07-20T10:04:34;5.57;;;2.40;;
577;SDS011;275;48.492;9.214;2023-07-20T10:07:04;4.90;;;2.60;;
577;SDS011;275;48.492;9.214;2023-07-20T10:09:35;4.37;;;2.20;;
577;SDS011;275;48.492;9.214;2023-07-20T10:12:06;3.40;;;2.03;;
577;SDS011;275;48.492;9.214;2023-07-20T10:14:35;4.63;;;2.57;;
577;SDS011;275;48.492;9.214;2023-07-20T10:17:07;4.87;;;2.50;;
577;SDS011;275;48.492;9.214;2023-07-20T10:19:41;4.07;;;2.10;;
577;SDS011;275;48.492;9.214;2023-07-20T10:22:12;4.77;;;2.70;;
577;SDS011;275;48.492;9.214;2023-07-20T10:24:45;5.17;;;2.97;;
577;SDS011;275;48.492;9.214;2023-07-20T10:27:13;3.83;;;2.37;;
577;SDS011;275;48.492;9.214;2023-07-20T10:29:40;4.37;;;2.20;;
577;SDS011;275;48.492;9.214;2023-07-20T10:32:08;4.03;;;2.30;;
577;SDS011;275;48.492;9.214;2023-07-20T10:34:35;5.03;;;2.70;;
577;SDS011;275;48.492;9.214;2023-07-20T10:37:04;3.30;;;2.00;;
577;SDS011;275;48.492;9.214;2023-07-20T10:39:32;4.07;;;2.27;;
577;SDS011;275;48.492;9.214;2023-07-20T10:41:59;4.17;;;2.17;;
577;SDS011;275;48.492;9.214;2023-07-20T10:44:28;4.70;;;2.10;;
577;SDS011;275;48.492;9.214;2023-07-20T10:46:58;4.57;;;2.60;;
577;SDS011;275;48.492;9.214;2023-07-20T10:49:26;5.63;;;2.13;;
577;SDS011;275;48.492;9.214;2023-07-20T10:51:57;4.27;;;2.30;;
577;SDS011;275;48.492;9.214;2023-07-20T10:54:36;3.67;;;1.80;;
577;SDS011;275;48.492;9.214;2023-07-20T11:00:09;4.80;;;2.40;;
577;SDS011;275;48.492;9.214;2023-07-20T11:02:44;4.33;;;2.13;;
577;SDS011;275;48.492;9.214;2023-07-20T11:08:00;4.43;;;2.00;;
577;SDS011;275;48.492;9.214;2023-07-20T11:10:30;4.80;;;2.53;;
577;SDS011;275;48.492;9.214;2023-07-20T11:13:16;4.50;;;2.47;;
577;SDS011;275;48.492;9.214;2023-07-20T11:15:48;4.63;;;2.53;;
577;SDS011;275;48.492;9.214;2023-07-20T11:18:29;4.63;;;2.50;;
577;SDS011;275;48.492;9.214;2023-07-20T11:20:57;4.50;;;2.23;;
577;SDS011;275;48.492;9.214;2023-07-20T11:23:24;3.80;;;2.67;;
577;SDS011;275;48.492;9.214;2023-07-20T11:25:53;4.23;;;2.77;;
577;SDS011;275;48.492;9.214;2023-07-20T11:28:20;5.07;;;2.77;;
577;SDS011;275;48.492;9.214;2023-07-20T11:30:50;5.30;;;1.87;;
577;SDS011;275;48.492;9.214;2023-07-20T11:33:19;4.43;;;2.10;;
577;SDS011;275;48.492;9.214;2023-07-20T11:35:48;3.60;;;2.10;;
577;SDS011;275;48.492;9.214;2023-07-20T11:38:16;5.20;;;2.30;;
577;SDS011;275;48.492;9.214;2023-07-20T11:43:12;3.77;;;2.10;;
577;SDS011;275;48.492;9.214;2023-07-20T11:45:40;4.37;;;2.33;;
577;SDS011;275;48.492;9.214;2023-07-20T11:48:06;5.13;;;2.30;;
577;SDS011;275;48.492;9.214;2023-07-20T11:50:40;3.50;;;2.10;;
577;SDS011;275;48.492;9.214;2023-07-20T11:53:06;3.30;;;1.90;;
577;SDS011;275;48.492;9.214;2023-07-20T11:55:34;4.17;;;2.00;;
577;SDS011;275;48.492;9.214;2023-07-20T11:58:02;3.30;;;1.60;;
577;SDS011;275;48.492;9.214;2023-07-20T12:00:31;3.60;;;2.20;;
577;SDS011;275;48.492;9.214;2023-07-20T12:02:58;4.20;;;2.07;;
577;SDS011;275;48.492;9.214;2023-07-20T12:05:26;5.63;;;2.10;;
577;SDS011;275;48.492;9.214;2023-07-20T12:07:54;4.27;;;2.10;;
577;SDS011;275;48.492;9.214;2023-07-20T12:10:25;4.50;;;2.07;;
577;SDS011;275;48.492;9.214;2023-07-20T12:12:53;3.37;;;1.60;;
577;SDS011;275;48.492;9.214;2023-07-20T12:15:21;5.73;;;2.23;;
577;SDS011;275;48.492;9.214;2023-07-20T12:17:51;4.03;;;2.03;;
577;SDS011;275;48.492;9.214;2023-07-20T12:20:25;4.97;;;2.50;;
577;SDS011;275;48.492;9.214;2023-07-20T12:22:55;3.40;;;1.80;;
577;SDS011;275;48.492;9.214;2023-07-20T12:25:23;4.03;;;2.03;;
577;SDS011;275;48.492;9.214;2023-07-20T12:27:50;4.13;;;1.90;;
577;SDS011;275;48.492;9.214;2023-07-20T12:30:17;6.80;;;2.23;;
577;SDS011;275;48.492;9.214;2023-07-20T12:32:43;3.50;;;1.67;;
577;SDS011;275;48.492;9.214;2023-07-20T12:35:12;3.27;;;1.60;;
577;SDS011;275;48.492;9.214;2023-07-20T12:37:39;4.50;;;2.10;;
577;SDS011;275;48.492;9.214;2023-07-20T12:40:07;4.60;;;2.13;;
577;SDS011;275;48.492;9.214;2023-07-20T12:42:35;6.87;;;2.43;;
577;SDS011;275;48.492;9.214;2023-07-20T12:45:03;3.87;;;2.17;;
577;SDS011;275;48.492;9.214;2023-07-20T12:47:31;3.20;;;2.00;;
577;SDS011;275;48.492;9.214;2023-07-20T12:49:58;5.13;;;2.13;;
577;SDS011;275;48.492;9.214;2023-07-20T12:52:26;4.20;;;2.13;;
577;SDS011;275;48.492;9.214;2023-07-20T12:54:53;4.03;;;2.10;;
577;SDS011;275;48.492;9.214;2023-07-20T12:57:20;5.57;;;2.37;;
577;SDS011;275;48.492;9.214;2023-07-20T12:59:47;3.50;;;1.87;;
577;SDS011;275;48.492;9.214;2023-07-20T13:02:13;4.87;;;2.20;;
577;SDS011;275;48.492;9.214;2023-07-20T13:04:40;4.20;;;2.03;;
577;SDS011;275;48.492;9.214;2023-07-20T13:07:09;5.47;;;2.20;;
577;SDS011;275;48.492;9.214;2023-07-20T13:09:38;3.50;;;1.63;;
577;SDS011;275;48.492;9.214;2023-07-20T13:12:05;4.27;;;2.00;;
577;SDS011;275;48.492;9.214;2023-07-20T13:14:33;4.00;;;2.10;;
577;SDS011;275;48.492;9.214;2023-07-20T13:16:59;4.37;;;2.23;;
577;SDS011;275;48.492;9.214;2023-07-20T13:19:26;3.90;;;2.83;;
577;SDS011;275;48.492;9.214;2023-07-20T13:21:53;3.30;;;2.20;;
577;SDS011;275;48.492;9.214;2023-07-20T13:24:20;3.93;;;1.90;;
577;SDS011;275;48.492;9.214;2023-07-20T13:26:48;3.70;;;2.10;;
577;SDS011;275;48.492;9.214;2023-07-20T13:29:15;3.90;;;2.30;;
577;SDS011;275;48.492;9.214;2023-07-20T13:31:42;4.87;;;2.60;;
577;SDS011;275;48.492;9.214;2023-07-20T13:34:09;5.10;;;2.57;;
577;SDS011;275;48.492;9.214;2023-07-20T13:36:36;3.63;;;1.60;;
577;SDS011;275;48.492;9.214;2023-07-20T13:39:03;4.80;;;2.30;;
577;SDS011;275;48.492;9.214;2023-07-20T13:41:30;3.33;;;2.03;;
577;SDS011;275;48.492;9.214;2023-07-20T13:43:59;3.90;;;2.40;;
577;SDS011;275;48.492;9.214;2023-07-20T13:46:26;5.13;;;2.90;;
577;SDS011;275;48.492;9.214;2023-07-20T13:48:53;4.97;;;2.43;;
577;SDS011;275;48.492;9.214;2023-07-20T13:51:20;7.40;;;2.80;;
577;SDS011;275;48.492;9.214;2023-07-20T13:53:47;3.80;;;2.10;;
577;SDS011;275;48.492;9.214;2023-07-20T13:56:14;3.80;;;1.60;;
577;SDS011;275;48.492;9.214;2023-07-20T13:58:41;4.33;;;2.60;;
577;SDS011;275;48.492;9.214;2023-07-20T14:01:09;5.83;;;2.63;;
577;SDS011;275;48.492;9.214;2023-07-20T14:03:36;4.30;;;2.27;;
577;SDS011;275;48.492;9.214;2023-07-20T14:06:03;4.67;;;2.60;;
577;SDS011;275;48.492;9.214;2023-07-20T14:08:30;4.03;;;1.90;;
577;SDS011;275;48.492;9.214;2023-07-20T14:10:57;4.47;;;2.73;;
577;SDS011;275;48.492;9.214;2023-07-20T14:13:24;4.37;;;2.60;;
577;SDS011;275;48.492;9.214;2023-07-20T14:15:51;5.73;;;2.10;;
577;SDS011;275;48.492;9.214;2023-07-20T14:18:19;4.50;;;2.20;;
577;SDS011;275;48.492;9.214;2023-07-20T14:20:46;3.70;;;2.20;;
577;SDS011;275;48.492;9.214;2023-07-20T14:23:13;3.80;;;1.90;;
577;SDS011;275;48.492;9.214;2023-07-20T14:25:39;3.57;;;1.80;;
577;SDS011;275;48.492;9.214;2023-07-20T14:28:07;4.00;;;2.00;;
577;SDS011;275;48.492;9.214;2023-07-20T14:30:34;4.40;;;2.27;;
577;SDS011;275;48.492;9.214;2023-07-20T14:33:01;4.80;;;2.27;;
577;SDS011;275;48.492;9.214;2023-07-20T14:35:29;3.73;;;2.57;;
577;SDS011;275;48.492;9.214;2023-07-20T14:37:56;3.90;;;1.77;;
577;SDS011;275;48.492;9.214;2023-07-20T14:40:23;5.83;;;2.30;;
577;SDS011;275;48.492;9.214;2023-07-20T14:42:49;4.20;;;2.17;;
577;SDS011;275;48.492;9.214;2023-07-20T14:45:17;3.67;;;1.90;;
577;SDS011;275;48.492;9.214;2023-07-20T14:47:44;5.53;;;2.47;;
577;SDS011;275;48.492;9.214;2023-07-20T14:50:11;4.20;;;2.20;;
577;SDS011;275;48.492;9.214;2023-07-20T14:52:39;4.17;;;2.03;;
577;SDS011;275;48.492;9.214;2023-07-20T14:55:06;4.23;;;2.40;;
577;SDS011;275;48.492;9.214;2023-07-20T14:57:33;3.67;;;2.07;;
577;SDS011;275;48.492;9.214;2023-07-20T15:00:00;4.30;;;2.07;;
577;SDS011;275;48.492;9.214;2023-07-20T15:02:28;3.50;;;2.20;;
577;SDS011;275;48.492;9.214;2023-07-20T15:04:55;3.73;;;2.10;;
577;SDS011;275;48.492;9.214;2023-07-20T15:07:22;4.47;;;2.03;;
577;SDS011;275;48.492;9.214;2023-07-20T15:09:50;5.40;;;2.10;;
577;SDS011;275;48.492;9.214;2023-07-20T15:12:17;4.03;;;2.33;;
577;SDS011;275;48.492;9.214;2023-07-20T15:14:44;3.80;;;2.40;;
577;SDS011;275;48.492;9.214;2023-07-20T15:17:28;4.00;;;2.10;;
577;SDS011;275;48.492;9.214;2023-07-20T15:19:55;4.00;;;2.30;;
577;SDS011;275;48.492;9.214;2023-07-20T15:22:22;3.27;;;1.90;;
577;SDS011;275;48.492;9.214;2023-07-20T15:24:48;3.10;;;1.70;;
577;SDS011;275;48.492;9.214;2023-07-20T15:27:17;3.57;;;2.27;;
577;SDS011;275;48.492;9.214;2023-07-20T15:29:44;6.23;;;2.40;;
577;SDS011;275;48.492;9.214;2023-07-20T15:32:11;3.97;;;2.40;;
577;SDS011;275;48.492;9.214;2023-07-20T15:34:38;7.17;;;2.60;;
577;SDS011;275;48.492;9.214;2023-07-20T15:37:05;7.40;;;2.47;;
577;SDS011;275;48.492;9.214;2023-07-20T15:39:32;4.57;;;2.47;;
577;SDS011;275;48.492;9.214;2023-07-20T15:42:00;5.47;;;2.23;;
577;SDS011;275;48.492;9.214;2023-07-20T15:44:27;4.70;;;2.33;;
577;SDS011;275;48.492;9.214;2023-07-20T15:46:53;3.47;;;2.00;;
577;SDS011;275;48.492;9.214;2023-07-20T15:49:20;5.47;;;2.50;;
577;SDS011;275;48.492;9.214;2023-07-20T15:51:47;4.10;;;2.10;;
577;SDS011;275;48.492;9.214;2023-07-20T15:54:14;3.90;;;2.13;;
577;SDS011;275;48.492;9.214;2023-07-20T15:56:41;5.10;;;2.10;;
577;SDS011;275;48.492;9.214;2023-07-20T15:59:11;4.33;;;2.70;;
577;SDS011;275;48.492;9.214;2023-07-20T16:01:39;3.80;;;1.80;;